sensor_id;sensor_type;location;lat;lon;timestamp;temperature;humidity
15888;DHT22;56032;51.324;12.376;2022-11-18T00:01:10;5.70;99.90
15888;DHT22;56032;51.324;12.376;2022-11-18T00:03:40;5.70;99.90
15888;DHT22;56032;51.324;12.376;2022-11-18T00:06:09;5.60;99.90
15888;DHT22;56032;51.324;12.376;2022-11-18T00:08:39;5.70;99.90
15888;DHT22;56032;51.324;12.376;2022-11-18T00:11:09;5.70;99.90
15888;DHT22;56032;51.324;12.376;2022-11-18T00:13:38;5.70;99.90
15888;DHT22;56032;51.324;12.376;2022-11-18T00:16:24;5.70;99.90
15888;DHT22;56032;51.324;12.376;2022-11-18T00:18:52;5.70;99.90
15888;DHT22;56032;51.324;12.376;2022-11-18T00:21:21;5.70;99.90
15888;DHT22;56032;51.324;12.376;2022-11-18T00:23:51;5.70;99.90
15888;DHT22;56032;51.324;12.376;2022-11-18T00:26:19;5.70;99.90
15888;DHT22;56032;51.324;12.376;2022-11-18T00:28:47;5.70;99.90
15888;DHT22;56032;51.324;12.376;2022-11-18T00:31:15;5.60;99.90
15888;DHT22;56032;51.324;12.376;2022-11-18T00:33:44;5.60;99.90
15888;DHT22;56032;51.324;12.376;2022-11-18T00:36:12;5.60;99.90
15888;DHT22;56032;51.324;12.376;2022-11-18T00:38:40;5.60;99.90
15888;DHT22;56032;51.324;12.376;2022-11-18T00:41:10;5.60;99.90
15888;DHT22;56032;51.324;12.376;2022-11-18T00:43:39;5.60;99.90
15888;DHT22;56032;51.324;12.376;2022-11-18T00:46:07;5.60;99.90
15888;DHT22;56032;51.324;12.376;2022-11-18T00:48:35;5.60;99.90
15888;DHT22;56032;51.324;12.376;2022-11-18T00:51:08;5.60;99.90
15888;DHT22;56032;51.324;12.376;2022-11-18T00:53:37;5.60;99.90
15888;DHT22;56032;51.324;12.376;2022-11-18T00:56:05;5.60;99.90
15888;DHT22;56032;51.324;12.376;2022-11-18T00:58:35;5.60;99.90
15888;DHT22;56032;51.324;12.376;2022-11-18T01:01:03;5.60;99.90
15888;DHT22;56032;51.324;12.376;2022-11-18T01:03:31;5.60;99.90
15888;DHT22;56032;51.324;12.376;2022-11-18T01:06:00;5.60;99.90
15888;DHT22;56032;51.324;12.376;2022-11-18T01:08:28;5.60;99.90
15888;DHT22;56032;51.324;12.376;2022-11-18T01:10:56;5.60;99.90
15888;DHT22;56032;51.324;12.376;2022-11-18T01:13:49;5.60;99.90
15888;DHT22;56032;51.324;12.376;2022-11-18T01:16:34;5.60;99.90
15888;DHT22;56032;51.324;12.376;2022-11-18T01:19:20;5.50;99.90
15888;DHT22;56032;51.324;12.376;2022-11-18T01:21:50;5.50;99.90
15888;DHT22;56032;51.324;12.376;2022-11-18T01:24:18;5.50;99.90
15888;DHT22;56032;51.324;12.376;2022-11-18T01:26:47;5.50;99.90
15888;DHT22;56032;51.324;12.376;2022-11-18T01:29:16;5.50;99.90
15888;DHT22;56032;51.324;12.376;2022-11-18T01:31:45;5.50;99.90
15888;DHT22;56032;51.324;12.376;2022-11-18T01:34:33;5.40;99.90
15888;DHT22;56032;51.324;12.376;2022-11-18T01:37:02;5.40;99.90
15888;DHT22;56032;51.324;12.376;2022-11-18T01:39:30;5.40;99.90
15888;DHT22;56032;51.324;12.376;2022-11-18T01:41:58;5.40;99.90
15888;DHT22;56032;51.324;12.376;2022-11-18T01:47:16;5.40;99.90
15888;DHT22;56032;51.324;12.376;2022-11-18T01:49:44;5.40;99.90
15888;DHT22;56032;51.324;12.376;2022-11-18T01:52:12;5.40;99.90
15888;DHT22;56032;51.324;12.376;2022-11-18T01:54:42;5.40;99.90
15888;DHT22;56032;51.324;12.376;2022-11-18T01:57:13;5.40;99.90
15888;DHT22;56032;51.324;12.376;2022-11-18T01:59:45;5.40;99.90
15888;DHT22;56032;51.324;12.376;2022-11-18T02:02:17;5.40;99.90
15888;DHT22;56032;51.324;12.376;2022-11-18T02:04:47;5.30;99.90
15888;DHT22;56032;51.324;12.376;2022-11-18T02:07:16;5.40;99.90
15888;DHT22;56032;51.324;12.376;2022-11-18T02:09:44;5.30;99.90
15888;DHT22;56032;51.324;12.376;2022-11-18T02:12:12;5.30;99.90
15888;DHT22;56032;51.324;12.376;2022-11-18T02:14:41;5.30;99.90
15888;DHT22;56032;51.324;12.376;2022-11-18T02:17:14;5.30;99.90
15888;DHT22;56032;51.324;12.376;2022-11-18T02:19:54;5.30;99.90
15888;DHT22;56032;51.324;12.376;2022-11-18T02:22:34;5.30;99.90
15888;DHT22;56032;51.324;12.376;2022-11-18T02:25:05;5.30;99.90
15888;DHT22;56032;51.324;12.376;2022-11-18T02:27:43;5.30;99.90
15888;DHT22;56032;51.324;12.376;2022-11-18T02:30:19;5.30;99.90
15888;DHT22;56032;51.324;12.376;2022-11-18T02:32:47;5.30;99.90
15888;DHT22;56032;51.324;12.376;2022-11-18T02:35:17;5.30;99.90
15888;DHT22;56032;51.324;12.376;2022-11-18T02:37:47;5.30;99.90
15888;DHT22;56032;51.324;12.376;2022-11-18T02:40:18;5.20;99.90
15888;DHT22;56032;51.324;12.376;2022-11-18T02:42:50;5.20;99.90
15888;DHT22;56032;51.324;12.376;2022-11-18T02:45:21;5.20;99.90
15888;DHT22;56032;51.324;12.376;2022-11-18T02:47:49;5.20;99.90
15888;DHT22;56032;51.324;12.376;2022-11-18T02:50:19;5.20;99.90
15888;DHT22;56032;51.324;12.376;2022-11-18T02:52:50;5.20;99.90
15888;DHT22;56032;51.324;12.376;2022-11-18T02:55:20;5.10;99.90
15888;DHT22;56032;51.324;12.376;2022-11-18T02:57:49;5.10;99.90
15888;DHT22;56032;51.324;12.376;2022-11-18T03:00:17;5.10;99.90
15888;DHT22;56032;51.324;12.376;2022-11-18T03:02:47;5.10;99.90
15888;DHT22;56032;51.324;12.376;2022-11-18T03:05:17;5.00;99.90
15888;DHT22;56032;51.324;12.376;2022-11-18T03:07:47;5.00;99.90
15888;DHT22;56032;51.324;12.376;2022-11-18T03:10:17;5.00;99.90
15888;DHT22;56032;51.324;12.376;2022-11-18T03:12:47;5.00;99.90
15888;DHT22;56032;51.324;12.376;2022-11-18T03:15:21;5.00;99.90
15888;DHT22;56032;51.324;12.376;2022-11-18T03:17:58;5.00;99.90
15888;DHT22;56032;51.324;12.376;2022-11-18T03:20:29;5.00;99.90
15888;DHT22;56032;51.324;12.376;2022-11-18T03:23:02;5.00;99.90
15888;DHT22;56032;51.324;12.376;2022-11-18T03:25:33;5.00;99.90
15888;DHT22;56032;51.324;12.376;2022-11-18T03:28:06;5.00;99.90
15888;DHT22;56032;51.324;12.376;2022-11-18T03:30:36;4.90;99.90
15888;DHT22;56032;51.324;12.376;2022-11-18T03:33:07;5.00;99.90
15888;DHT22;56032;51.324;12.376;2022-11-18T03:35:38;5.00;99.90
15888;DHT22;56032;51.324;12.376;2022-11-18T03:38:07;5.00;99.90
15888;DHT22;56032;51.324;12.376;2022-11-18T03:40:37;5.00;99.90
15888;DHT22;56032;51.324;12.376;2022-11-18T03:43:07;5.00;99.90
15888;DHT22;56032;51.324;12.376;2022-11-18T03:45:38;5.00;99.90
15888;DHT22;56032;51.324;12.376;2022-11-18T03:48:11;5.00;99.90
15888;DHT22;56032;51.324;12.376;2022-11-18T03:50:42;5.00;99.90
15888;DHT22;56032;51.324;12.376;2022-11-18T03:53:12;5.00;99.90
15888;DHT22;56032;51.324;12.376;2022-11-18T03:55:42;5.00;99.90
15888;DHT22;56032;51.324;12.376;2022-11-18T03:58:12;5.00;99.90
15888;DHT22;56032;51.324;12.376;2022-11-18T04:00:43;5.00;99.90
15888;DHT22;56032;51.324;12.376;2022-11-18T04:03:14;5.00;99.90
15888;DHT22;56032;51.324;12.376;2022-11-18T04:05:42;5.00;99.90
15888;DHT22;56032;51.324;12.376;2022-11-18T04:08:12;5.00;99.90
15888;DHT22;56032;51.324;12.376;2022-11-18T04:10:44;5.00;99.90
15888;DHT22;56032;51.324;12.376;2022-11-18T04:13:15;5.00;99.90
15888;DHT22;56032;51.324;12.376;2022-11-18T04:15:45;5.00;99.90
15888;DHT22;56032;51.324;12.376;2022-11-18T04:18:14;4.90;99.90
15888;DHT22;56032;51.324;12.376;2022-11-18T04:20:42;4.90;99.90
15888;DHT22;56032;51.324;12.376;2022-11-18T04:23:11;4.80;99.90
15888;DHT22;56032;51.324;12.376;2022-11-18T04:25:39;4.80;99.90
15888;DHT22;56032;51.324;12.376;2022-11-18T04:28:07;4.70;99.90
15888;DHT22;56032;51.324;12.376;2022-11-18T04:30:35;4.70;99.90
15888;DHT22;56032;51.324;12.376;2022-11-18T04:33:04;4.70;99.90
15888;DHT22;56032;51.324;12.376;2022-11-18T04:35:33;4.60;99.90
15888;DHT22;56032;51.324;12.376;2022-11-18T04:38:01;4.60;99.90
15888;DHT22;56032;51.324;12.376;2022-11-18T04:40:30;4.60;99.90
15888;DHT22;56032;51.324;12.376;2022-11-18T04:42:58;4.50;99.90
15888;DHT22;56032;51.324;12.376;2022-11-18T04:45:27;4.50;99.90
15888;DHT22;56032;51.324;12.376;2022-11-18T04:47:55;4.50;99.90
15888;DHT22;56032;51.324;12.376;2022-11-18T04:50:29;4.50;99.90
15888;DHT22;56032;51.324;12.376;2022-11-18T04:52:58;4.60;99.90
15888;DHT22;56032;51.324;12.376;2022-11-18T04:55:27;4.60;99.90
15888;DHT22;56032;51.324;12.376;2022-11-18T04:57:55;4.50;99.90
15888;DHT22;56032;51.324;12.376;2022-11-18T05:00:23;4.50;99.90
15888;DHT22;56032;51.324;12.376;2022-11-18T05:02:51;4.40;99.90
15888;DHT22;56032;51.324;12.376;2022-11-18T05:05:19;4.40;99.90
15888;DHT22;56032;51.324;12.376;2022-11-18T05:07:47;4.40;99.90
15888;DHT22;56032;51.324;12.376;2022-11-18T05:10:17;4.40;99.90
15888;DHT22;56032;51.324;12.376;2022-11-18T05:12:45;4.40;99.90
15888;DHT22;56032;51.324;12.376;2022-11-18T05:15:16;4.40;99.90
15888;DHT22;56032;51.324;12.376;2022-11-18T05:17:44;4.40;99.90
15888;DHT22;56032;51.324;12.376;2022-11-18T05:20:12;4.40;99.90
15888;DHT22;56032;51.324;12.376;2022-11-18T05:22:42;4.40;99.90
15888;DHT22;56032;51.324;12.376;2022-11-18T05:25:10;4.30;99.90
15888;DHT22;56032;51.324;12.376;2022-11-18T05:27:40;4.30;99.90
15888;DHT22;56032;51.324;12.376;2022-11-18T05:30:08;4.40;99.90
15888;DHT22;56032;51.324;12.376;2022-11-18T05:32:37;4.30;99.90
15888;DHT22;56032;51.324;12.376;2022-11-18T05:35:05;4.30;99.90
15888;DHT22;56032;51.324;12.376;2022-11-18T05:37:33;4.30;99.90
15888;DHT22;56032;51.324;12.376;2022-11-18T05:40:01;4.30;99.90
15888;DHT22;56032;51.324;12.376;2022-11-18T05:42:30;4.40;99.90
15888;DHT22;56032;51.324;12.376;2022-11-18T05:45:17;4.30;99.90
15888;DHT22;56032;51.324;12.376;2022-11-18T05:47:46;4.20;99.90
15888;DHT22;56032;51.324;12.376;2022-11-18T05:50:30;4.20;99.90
15888;DHT22;56032;51.324;12.376;2022-11-18T05:52:59;4.10;99.90
15888;DHT22;56032;51.324;12.376;2022-11-18T05:55:28;4.10;99.90
15888;DHT22;56032;51.324;12.376;2022-11-18T05:57:56;4.10;99.90
15888;DHT22;56032;51.324;12.376;2022-11-18T06:00:26;4.00;99.90
15888;DHT22;56032;51.324;12.376;2022-11-18T06:02:54;4.10;99.90
15888;DHT22;56032;51.324;12.376;2022-11-18T06:05:23;4.00;99.90
15888;DHT22;56032;51.324;12.376;2022-11-18T06:07:53;4.00;99.90
15888;DHT22;56032;51.324;12.376;2022-11-18T06:10:23;4.00;99.90
15888;DHT22;56032;51.324;12.376;2022-11-18T06:12:54;3.90;99.90
15888;DHT22;56032;51.324;12.376;2022-11-18T06:15:24;3.90;99.90
15888;DHT22;56032;51.324;12.376;2022-11-18T06:17:55;3.90;99.90
15888;DHT22;56032;51.324;12.376;2022-11-18T06:20:24;3.90;99.90
15888;DHT22;56032;51.324;12.376;2022-11-18T06:22:53;3.80;99.90
15888;DHT22;56032;51.324;12.376;2022-11-18T06:25:22;3.80;99.90
15888;DHT22;56032;51.324;12.376;2022-11-18T06:27:51;3.90;99.90
15888;DHT22;56032;51.324;12.376;2022-11-18T06:30:20;3.80;99.90
15888;DHT22;56032;51.324;12.376;2022-11-18T06:32:48;3.80;99.90
15888;DHT22;56032;51.324;12.376;2022-11-18T06:35:18;3.80;99.90
15888;DHT22;56032;51.324;12.376;2022-11-18T06:37:46;3.80;99.90
15888;DHT22;56032;51.324;12.376;2022-11-18T06:40:15;3.80;99.90
15888;DHT22;56032;51.324;12.376;2022-11-18T06:42:43;3.80;99.90
15888;DHT22;56032;51.324;12.376;2022-11-18T06:45:43;3.80;99.90
15888;DHT22;56032;51.324;12.376;2022-11-18T06:48:35;3.80;99.90
15888;DHT22;56032;51.324;12.376;2022-11-18T06:51:21;3.80;99.90
15888;DHT22;56032;51.324;12.376;2022-11-18T06:54:07;3.70;99.90
15888;DHT22;56032;51.324;12.376;2022-11-18T06:56:53;3.70;99.90
15888;DHT22;56032;51.324;12.376;2022-11-18T06:59:38;3.60;99.90
15888;DHT22;56032;51.324;12.376;2022-11-18T07:02:28;3.60;99.90
15888;DHT22;56032;51.324;12.376;2022-11-18T07:05:13;3.60;99.90
15888;DHT22;56032;51.324;12.376;2022-11-18T07:08:00;3.60;99.90
15888;DHT22;56032;51.324;12.376;2022-11-18T07:10:50;3.60;99.90
15888;DHT22;56032;51.324;12.376;2022-11-18T07:13:36;3.50;99.90
15888;DHT22;56032;51.324;12.376;2022-11-18T07:16:10;3.40;99.90
15888;DHT22;56032;51.324;12.376;2022-11-18T07:18:38;3.50;99.90
15888;DHT22;56032;51.324;12.376;2022-11-18T07:21:08;3.50;99.90
15888;DHT22;56032;51.324;12.376;2022-11-18T07:23:39;3.40;99.90
15888;DHT22;56032;51.324;12.376;2022-11-18T07:26:07;3.40;99.90
15888;DHT22;56032;51.324;12.376;2022-11-18T07:28:35;3.50;99.90
15888;DHT22;56032;51.324;12.376;2022-11-18T07:31:04;3.60;99.90
15888;DHT22;56032;51.324;12.376;2022-11-18T07:33:33;3.40;99.90
15888;DHT22;56032;51.324;12.376;2022-11-18T07:36:01;3.40;99.90
15888;DHT22;56032;51.324;12.376;2022-11-18T07:38:30;3.40;99.90
15888;DHT22;56032;51.324;12.376;2022-11-18T07:41:03;3.40;99.90
15888;DHT22;56032;51.324;12.376;2022-11-18T07:43:32;3.40;99.90
15888;DHT22;56032;51.324;12.376;2022-11-18T07:46:10;3.40;99.90
15888;DHT22;56032;51.324;12.376;2022-11-18T07:48:39;3.30;99.90
15888;DHT22;56032;51.324;12.376;2022-11-18T07:51:07;3.40;99.90
15888;DHT22;56032;51.324;12.376;2022-11-18T07:53:35;3.40;99.90
15888;DHT22;56032;51.324;12.376;2022-11-18T07:56:06;3.40;99.90
15888;DHT22;56032;51.324;12.376;2022-11-18T07:58:34;3.40;99.90
15888;DHT22;56032;51.324;12.376;2022-11-18T08:01:06;3.10;99.90
15888;DHT22;56032;51.324;12.376;2022-11-18T08:03:35;3.30;99.90
15888;DHT22;56032;51.324;12.376;2022-11-18T08:06:03;3.20;99.90
15888;DHT22;56032;51.324;12.376;2022-11-18T08:08:32;3.20;99.90
15888;DHT22;56032;51.324;12.376;2022-11-18T08:11:00;3.20;99.90
15888;DHT22;56032;51.324;12.376;2022-11-18T08:13:30;3.20;99.90
15888;DHT22;56032;51.324;12.376;2022-11-18T08:15:59;3.20;99.90
15888;DHT22;56032;51.324;12.376;2022-11-18T08:18:27;3.20;99.90
15888;DHT22;56032;51.324;12.376;2022-11-18T08:20:59;3.20;99.90
15888;DHT22;56032;51.324;12.376;2022-11-18T08:23:28;3.20;99.90
15888;DHT22;56032;51.324;12.376;2022-11-18T08:26:02;3.20;99.90
15888;DHT22;56032;51.324;12.376;2022-11-18T08:28:32;3.00;99.90
15888;DHT22;56032;51.324;12.376;2022-11-18T08:31:07;2.90;99.90
15888;DHT22;56032;51.324;12.376;2022-11-18T08:33:35;2.80;99.90
15888;DHT22;56032;51.324;12.376;2022-11-18T08:36:04;2.90;99.90
15888;DHT22;56032;51.324;12.376;2022-11-18T08:38:33;2.80;99.90
15888;DHT22;56032;51.324;12.376;2022-11-18T08:41:02;2.70;99.90
15888;DHT22;56032;51.324;12.376;2022-11-18T08:43:35;2.70;99.90
15888;DHT22;56032;51.324;12.376;2022-11-18T08:46:03;2.70;99.90
15888;DHT22;56032;51.324;12.376;2022-11-18T08:48:31;2.60;99.90
15888;DHT22;56032;51.324;12.376;2022-11-18T08:51:00;2.60;99.90
15888;DHT22;56032;51.324;12.376;2022-11-18T08:53:28;2.50;99.90
15888;DHT22;56032;51.324;12.376;2022-11-18T08:55:56;2.60;99.90
15888;DHT22;56032;51.324;12.376;2022-11-18T08:58:25;2.60;99.90
15888;DHT22;56032;51.324;12.376;2022-11-18T09:00:55;2.60;99.90
15888;DHT22;56032;51.324;12.376;2022-11-18T09:03:23;2.50;99.90
15888;DHT22;56032;51.324;12.376;2022-11-18T09:05:51;2.40;99.90
15888;DHT22;56032;51.324;12.376;2022-11-18T09:08:19;2.30;99.90
15888;DHT22;56032;51.324;12.376;2022-11-18T09:10:52;2.40;99.90
15888;DHT22;56032;51.324;12.376;2022-11-18T09:13:20;2.40;99.90
15888;DHT22;56032;51.324;12.376;2022-11-18T09:16:10;2.30;99.90
15888;DHT22;56032;51.324;12.376;2022-11-18T09:18:38;2.30;99.90
15888;DHT22;56032;51.324;12.376;2022-11-18T09:21:07;2.20;99.90
15888;DHT22;56032;51.324;12.376;2022-11-18T09:23:36;2.20;99.90
15888;DHT22;56032;51.324;12.376;2022-11-18T09:26:05;2.20;99.90
15888;DHT22;56032;51.324;12.376;2022-11-18T09:28:33;2.10;99.90
15888;DHT22;56032;51.324;12.376;2022-11-18T09:31:02;2.00;99.90
15888;DHT22;56032;51.324;12.376;2022-11-18T09:33:32;1.90;99.90
15888;DHT22;56032;51.324;12.376;2022-11-18T09:36:00;1.90;99.90
15888;DHT22;56032;51.324;12.376;2022-11-18T09:38:29;1.90;99.90
15888;DHT22;56032;51.324;12.376;2022-11-18T09:40:59;1.80;99.90
15888;DHT22;56032;51.324;12.376;2022-11-18T09:43:34;1.90;99.90
15888;DHT22;56032;51.324;12.376;2022-11-18T09:46:07;1.80;99.90
15888;DHT22;56032;51.324;12.376;2022-11-18T09:48:43;1.80;99.90
15888;DHT22;56032;51.324;12.376;2022-11-18T09:51:30;1.70;99.90
15888;DHT22;56032;51.324;12.376;2022-11-18T09:54:00;1.70;99.90
15888;DHT22;56032;51.324;12.376;2022-11-18T09:56:28;1.70;99.90
15888;DHT22;56032;51.324;12.376;2022-11-18T09:58:56;1.70;99.90
15888;DHT22;56032;51.324;12.376;2022-11-18T10:01:24;1.70;99.90
15888;DHT22;56032;51.324;12.376;2022-11-18T10:03:55;1.70;99.90
15888;DHT22;56032;51.324;12.376;2022-11-18T10:06:23;1.70;99.90
15888;DHT22;56032;51.324;12.376;2022-11-18T10:08:59;1.60;99.90
15888;DHT22;56032;51.324;12.376;2022-11-18T10:11:33;1.60;99.90
15888;DHT22;56032;51.324;12.376;2022-11-18T10:14:12;1.70;99.90
15888;DHT22;56032;51.324;12.376;2022-11-18T10:16:45;1.70;99.90
15888;DHT22;56032;51.324;12.376;2022-11-18T10:19:26;1.70;99.90
15888;DHT22;56032;51.324;12.376;2022-11-18T10:21:59;1.80;99.90
15888;DHT22;56032;51.324;12.376;2022-11-18T10:24:40;1.70;99.90
15888;DHT22;56032;51.324;12.376;2022-11-18T10:27:10;1.60;99.90
15888;DHT22;56032;51.324;12.376;2022-11-18T10:29:39;1.60;99.90
15888;DHT22;56032;51.324;12.376;2022-11-18T10:32:10;1.60;99.90
15888;DHT22;56032;51.324;12.376;2022-11-18T10:34:46;1.50;99.90
15888;DHT22;56032;51.324;12.376;2022-11-18T10:37:22;1.40;99.90
15888;DHT22;56032;51.324;12.376;2022-11-18T10:40:14;1.40;99.90
15888;DHT22;56032;51.324;12.376;2022-11-18T10:42:50;1.30;99.90
15888;DHT22;56032;51.324;12.376;2022-11-18T10:45:22;1.30;99.90
15888;DHT22;56032;51.324;12.376;2022-11-18T10:47:57;1.40;99.90
15888;DHT22;56032;51.324;12.376;2022-11-18T10:50:29;1.30;99.90
15888;DHT22;56032;51.324;12.376;2022-11-18T10:52:58;1.30;99.90
15888;DHT22;56032;51.324;12.376;2022-11-18T10:55:27;1.30;99.90
15888;DHT22;56032;51.324;12.376;2022-11-18T10:57:59;1.30;99.90
15888;DHT22;56032;51.324;12.376;2022-11-18T11:00:32;1.30;99.90
15888;DHT22;56032;51.324;12.376;2022-11-18T11:03:13;1.30;99.90
15888;DHT22;56032;51.324;12.376;2022-11-18T11:05:43;1.30;99.90
15888;DHT22;56032;51.324;12.376;2022-11-18T11:08:18;1.30;99.90
15888;DHT22;56032;51.324;12.376;2022-11-18T11:11:02;1.30;99.90
15888;DHT22;56032;51.324;12.376;2022-11-18T11:13:31;1.30;99.90
15888;DHT22;56032;51.324;12.376;2022-11-18T11:16:00;1.30;99.90
15888;DHT22;56032;51.324;12.376;2022-11-18T11:18:30;1.30;99.90
15888;DHT22;56032;51.324;12.376;2022-11-18T11:21:11;1.30;99.90
15888;DHT22;56032;51.324;12.376;2022-11-18T11:23:40;1.30;99.90
15888;DHT22;56032;51.324;12.376;2022-11-18T11:26:11;1.30;99.90
15888;DHT22;56032;51.324;12.376;2022-11-18T11:29:03;1.30;99.90
15888;DHT22;56032;51.324;12.376;2022-11-18T11:31:34;1.40;99.90
15888;DHT22;56032;51.324;12.376;2022-11-18T11:34:05;1.40;99.90
15888;DHT22;56032;51.324;12.376;2022-11-18T11:36:40;1.40;99.90
15888;DHT22;56032;51.324;12.376;2022-11-18T11:39:24;1.40;99.90
15888;DHT22;56032;51.324;12.376;2022-11-18T11:41:57;1.40;99.90
15888;DHT22;56032;51.324;12.376;2022-11-18T11:44:31;1.50;99.90
15888;DHT22;56032;51.324;12.376;2022-11-18T11:47:09;1.50;99.90
15888;DHT22;56032;51.324;12.376;2022-11-18T11:50:11;1.40;99.90
15888;DHT22;56032;51.324;12.376;2022-11-18T11:52:43;1.30;99.90
15888;DHT22;56032;51.324;12.376;2022-11-18T11:55:16;1.30;99.90
15888;DHT22;56032;51.324;12.376;2022-11-18T11:57:53;1.30;99.90
15888;DHT22;56032;51.324;12.376;2022-11-18T12:00:26;1.30;99.90
15888;DHT22;56032;51.324;12.376;2022-11-18T12:02:56;1.20;99.90
15888;DHT22;56032;51.324;12.376;2022-11-18T12:05:29;1.30;99.90
15888;DHT22;56032;51.324;12.376;2022-11-18T12:08:03;1.20;99.90
15888;DHT22;56032;51.324;12.376;2022-11-18T12:10:36;1.30;99.90
15888;DHT22;56032;51.324;12.376;2022-11-18T12:13:13;1.40;99.90
15888;DHT22;56032;51.324;12.376;2022-11-18T12:15:47;1.50;99.90
15888;DHT22;56032;51.324;12.376;2022-11-18T12:18:20;1.40;99.90
15888;DHT22;56032;51.324;12.376;2022-11-18T12:20:49;1.40;99.90
15888;DHT22;56032;51.324;12.376;2022-11-18T12:23:20;1.30;99.90
15888;DHT22;56032;51.324;12.376;2022-11-18T12:25:53;1.20;99.90
15888;DHT22;56032;51.324;12.376;2022-11-18T12:28:22;1.20;99.90
15888;DHT22;56032;51.324;12.376;2022-11-18T12:33:37;1.30;99.90
15888;DHT22;56032;51.324;12.376;2022-11-18T12:36:09;1.20;99.90
15888;DHT22;56032;51.324;12.376;2022-11-18T12:38:38;1.20;99.90
15888;DHT22;56032;51.324;12.376;2022-11-18T12:41:20;1.20;99.90
15888;DHT22;56032;51.324;12.376;2022-11-18T12:44:26;1.20;99.90
15888;DHT22;56032;51.324;12.376;2022-11-18T12:46:55;1.20;99.90
15888;DHT22;56032;51.324;12.376;2022-11-18T12:54:57;1.10;99.90
15888;DHT22;56032;51.324;12.376;2022-11-18T12:57:26;1.10;99.90
15888;DHT22;56032;51.324;12.376;2022-11-18T12:59:55;1.10;99.90
15888;DHT22;56032;51.324;12.376;2022-11-18T13:02:24;1.10;99.90
15888;DHT22;56032;51.324;12.376;2022-11-18T13:05:06;1.10;99.90
15888;DHT22;56032;51.324;12.376;2022-11-18T13:07:38;1.10;99.90
15888;DHT22;56032;51.324;12.376;2022-11-18T13:10:28;1.10;99.90
15888;DHT22;56032;51.324;12.376;2022-11-18T13:12:57;1.10;99.90
15888;DHT22;56032;51.324;12.376;2022-11-18T13:15:26;1.00;99.90
15888;DHT22;56032;51.324;12.376;2022-11-18T13:18:13;1.10;99.90
15888;DHT22;56032;51.324;12.376;2022-11-18T13:20:42;1.10;99.90
15888;DHT22;56032;51.324;12.376;2022-11-18T13:23:26;1.00;99.90
15888;DHT22;56032;51.324;12.376;2022-11-18T13:26:18;0.90;99.90
15888;DHT22;56032;51.324;12.376;2022-11-18T13:28:56;0.80;99.90
15888;DHT22;56032;51.324;12.376;2022-11-18T13:31:28;0.90;99.90
15888;DHT22;56032;51.324;12.376;2022-11-18T13:33:59;0.70;99.90
15888;DHT22;56032;51.324;12.376;2022-11-18T13:36:30;0.60;99.90
15888;DHT22;56032;51.324;12.376;2022-11-18T13:38:59;0.60;99.90
15888;DHT22;56032;51.324;12.376;2022-11-18T13:41:30;0.60;99.90
15888;DHT22;56032;51.324;12.376;2022-11-18T13:44:09;0.60;99.90
15888;DHT22;56032;51.324;12.376;2022-11-18T13:46:37;0.60;99.90
15888;DHT22;56032;51.324;12.376;2022-11-18T13:49:09;0.60;99.90
15888;DHT22;56032;51.324;12.376;2022-11-18T13:51:41;0.70;99.90
15888;DHT22;56032;51.324;12.376;2022-11-18T13:54:10;0.60;99.90
15888;DHT22;56032;51.324;12.376;2022-11-18T13:56:40;0.60;99.90
15888;DHT22;56032;51.324;12.376;2022-11-18T13:59:12;0.60;99.90
15888;DHT22;56032;51.324;12.376;2022-11-18T14:01:44;0.60;99.90
15888;DHT22;56032;51.324;12.376;2022-11-18T14:04:15;-1.30;99.90
15888;DHT22;56032;51.324;12.376;2022-11-18T14:06:44;0.60;99.90
15888;DHT22;56032;51.324;12.376;2022-11-18T14:09:17;0.50;99.90
15888;DHT22;56032;51.324;12.376;2022-11-18T14:11:57;0.40;99.90
15888;DHT22;56032;51.324;12.376;2022-11-18T14:14:30;0.30;99.90
15888;DHT22;56032;51.324;12.376;2022-11-18T14:17:03;0.40;99.90
15888;DHT22;56032;51.324;12.376;2022-11-18T14:19:31;0.40;99.90
15888;DHT22;56032;51.324;12.376;2022-11-18T14:22:03;0.30;99.90
15888;DHT22;56032;51.324;12.376;2022-11-18T14:24:38;0.20;99.90
15888;DHT22;56032;51.324;12.376;2022-11-18T14:29:55;0.20;99.90
15888;DHT22;56032;51.324;12.376;2022-11-18T14:32:25;0.10;99.90
15888;DHT22;56032;51.324;12.376;2022-11-18T14:34:57;0.20;99.90
15888;DHT22;56032;51.324;12.376;2022-11-18T14:37:25;0.10;99.90
15888;DHT22;56032;51.324;12.376;2022-11-18T14:39:54;0.10;99.90
15888;DHT22;56032;51.324;12.376;2022-11-18T14:42:23;0.00;99.90
15888;DHT22;56032;51.324;12.376;2022-11-18T14:44:51;0.10;99.90
15888;DHT22;56032;51.324;12.376;2022-11-18T14:47:24;0.10;99.90
15888;DHT22;56032;51.324;12.376;2022-11-18T14:49:56;0.00;99.90
15888;DHT22;56032;51.324;12.376;2022-11-18T14:52:24;0.00;99.90
15888;DHT22;56032;51.324;12.376;2022-11-18T14:54:52;0.10;99.90
15888;DHT22;56032;51.324;12.376;2022-11-18T14:57:21;0.00;99.90
15888;DHT22;56032;51.324;12.376;2022-11-18T14:59:50;0.00;99.90
15888;DHT22;56032;51.324;12.376;2022-11-18T15:02:18;0.00;99.90
15888;DHT22;56032;51.324;12.376;2022-11-18T15:04:48;0.10;99.90
15888;DHT22;56032;51.324;12.376;2022-11-18T15:07:18;0.10;99.90
15888;DHT22;56032;51.324;12.376;2022-11-18T15:09:49;0.10;99.90
15888;DHT22;56032;51.324;12.376;2022-11-18T15:12:19;0.10;99.90
15888;DHT22;56032;51.324;12.376;2022-11-18T15:14:48;0.10;99.90
15888;DHT22;56032;51.324;12.376;2022-11-18T15:17:16;0.20;99.90
15888;DHT22;56032;51.324;12.376;2022-11-18T15:19:46;0.20;99.90
15888;DHT22;56032;51.324;12.376;2022-11-18T15:22:15;0.20;99.90
15888;DHT22;56032;51.324;12.376;2022-11-18T15:24:43;0.20;99.90
15888;DHT22;56032;51.324;12.376;2022-11-18T15:27:12;0.10;99.90
15888;DHT22;56032;51.324;12.376;2022-11-18T15:29:40;0.00;99.90
15888;DHT22;56032;51.324;12.376;2022-11-18T15:32:08;0.00;99.90
15888;DHT22;56032;51.324;12.376;2022-11-18T15:34:36;0.10;99.90
15888;DHT22;56032;51.324;12.376;2022-11-18T15:37:05;0.10;99.90
15888;DHT22;56032;51.324;12.376;2022-11-18T15:39:35;0.20;99.90
15888;DHT22;56032;51.324;12.376;2022-11-18T15:42:03;0.10;99.90
15888;DHT22;56032;51.324;12.376;2022-11-18T15:44:32;0.10;99.90
15888;DHT22;56032;51.324;12.376;2022-11-18T15:47:00;0.10;99.90
15888;DHT22;56032;51.324;12.376;2022-11-18T15:49:28;0.10;99.90
15888;DHT22;56032;51.324;12.376;2022-11-18T15:51:57;0.10;99.90
15888;DHT22;56032;51.324;12.376;2022-11-18T15:54:25;0.20;99.90
15888;DHT22;56032;51.324;12.376;2022-11-18T15:56:56;0.20;99.90
15888;DHT22;56032;51.324;12.376;2022-11-18T15:59:24;0.20;99.90
15888;DHT22;56032;51.324;12.376;2022-11-18T16:01:53;0.10;99.90
15888;DHT22;56032;51.324;12.376;2022-11-18T16:04:22;0.20;99.90
15888;DHT22;56032;51.324;12.376;2022-11-18T16:06:50;0.20;99.90
15888;DHT22;56032;51.324;12.376;2022-11-18T16:09:19;0.20;99.90
15888;DHT22;56032;51.324;12.376;2022-11-18T16:11:48;0.20;99.90